Terminal Aerodrome Forecast
Issued by NWS

Home | Current Version | Previous Version | Text Only | Print | Product List | Glossary On
Versions: 1 2 3 4 5 6 7 8 9 10 11 12 13 14 15 16 17
000
FTUS41 KBOX 250536
TAFBAF
TAF
KBAF 250536Z 2506/2606 33011KT P6SM FEW050
     FM251000 VRB03KT P6SM FEW250
     FM252200 24005KT P6SM SCT250
     FM260400 21004KT P6SM SCT200=

USA.gov is the U.S. government's official web portal to all federal, state and local government web resources and services.